sensor_id;sensor_type;location;lat;lon;timestamp;P1;durP1;ratioP1;P2;durP2;ratioP2
68583;SDS011;55557;49.220;11.150;2022-09-29T00:00:55;5.27;;;2.93;;
68583;SDS011;55557;49.220;11.150;2022-09-29T00:03:21;6.27;;;3.50;;
68583;SDS011;55557;49.220;11.150;2022-09-29T00:05:48;5.17;;;3.20;;
68583;SDS011;55557;49.220;11.150;2022-09-29T00:08:14;4.07;;;3.20;;
68583;SDS011;55557;49.220;11.150;2022-09-29T00:10:40;5.43;;;3.60;;
68583;SDS011;55557;49.220;11.150;2022-09-29T00:13:06;5.80;;;3.00;;
68583;SDS011;55557;49.220;11.150;2022-09-29T00:15:32;4.97;;;3.33;;
68583;SDS011;55557;49.220;11.150;2022-09-29T00:17:58;3.97;;;3.13;;
68583;SDS011;55557;49.220;11.150;2022-09-29T00:20:24;5.07;;;3.13;;
68583;SDS011;55557;49.220;11.150;2022-09-29T00:22:50;5.83;;;3.53;;
68583;SDS011;55557;49.220;11.150;2022-09-29T00:25:17;4.67;;;3.50;;
68583;SDS011;55557;49.220;11.150;2022-09-29T00:27:43;5.70;;;3.47;;
68583;SDS011;55557;49.220;11.150;2022-09-29T00:30:10;3.53;;;2.80;;
68583;SDS011;55557;49.220;11.150;2022-09-29T00:32:36;3.93;;;3.03;;
68583;SDS011;55557;49.220;11.150;2022-09-29T00:35:02;3.00;;;2.63;;
68583;SDS011;55557;49.220;11.150;2022-09-29T00:37:28;3.53;;;3.00;;
68583;SDS011;55557;49.220;11.150;2022-09-29T00:39:55;3.50;;;2.93;;
68583;SDS011;55557;49.220;11.150;2022-09-29T00:42:21;3.70;;;3.07;;
68583;SDS011;55557;49.220;11.150;2022-09-29T00:47:31;4.23;;;2.87;;
68583;SDS011;55557;49.220;11.150;2022-09-29T00:50:14;6.57;;;3.40;;
68583;SDS011;55557;49.220;11.150;2022-09-29T00:52:46;2.80;;;2.60;;
68583;SDS011;55557;49.220;11.150;2022-09-29T00:55:20;4.60;;;3.03;;
68583;SDS011;55557;49.220;11.150;2022-09-29T00:57:50;4.27;;;2.77;;
68583;SDS011;55557;49.220;11.150;2022-09-29T01:00:16;4.50;;;2.57;;
68583;SDS011;55557;49.220;11.150;2022-09-29T01:02:45;10.33;;;3.17;;
68583;SDS011;55557;49.220;11.150;2022-09-29T01:05:17;6.37;;;3.23;;
68583;SDS011;55557;49.220;11.150;2022-09-29T01:07:44;3.60;;;2.77;;
68583;SDS011;55557;49.220;11.150;2022-09-29T01:10:11;4.30;;;2.97;;
68583;SDS011;55557;49.220;11.150;2022-09-29T01:12:38;4.73;;;2.77;;
68583;SDS011;55557;49.220;11.150;2022-09-29T01:15:04;6.20;;;3.10;;
68583;SDS011;55557;49.220;11.150;2022-09-29T01:17:30;4.37;;;2.90;;
68583;SDS011;55557;49.220;11.150;2022-09-29T01:20:05;5.23;;;3.23;;
68583;SDS011;55557;49.220;11.150;2022-09-29T01:35:34;5.10;;;2.70;;
68583;SDS011;55557;49.220;11.150;2022-09-29T01:43:11;7.67;;;2.53;;
68583;SDS011;55557;49.220;11.150;2022-09-29T01:45:41;3.40;;;2.50;;
68583;SDS011;55557;49.220;11.150;2022-09-29T01:48:10;4.13;;;2.40;;
68583;SDS011;55557;49.220;11.150;2022-09-29T01:50:39;3.90;;;2.77;;
68583;SDS011;55557;49.220;11.150;2022-09-29T01:53:08;3.37;;;2.50;;
68583;SDS011;55557;49.220;11.150;2022-09-29T01:55:37;7.67;;;3.10;;
68583;SDS011;55557;49.220;11.150;2022-09-29T01:58:08;4.47;;;2.40;;
68583;SDS011;55557;49.220;11.150;2022-09-29T02:00:40;4.60;;;2.43;;
68583;SDS011;55557;49.220;11.150;2022-09-29T02:05:42;3.43;;;2.73;;
68583;SDS011;55557;49.220;11.150;2022-09-29T02:08:12;3.10;;;2.40;;
68583;SDS011;55557;49.220;11.150;2022-09-29T02:10:53;5.83;;;2.80;;
68583;SDS011;55557;49.220;11.150;2022-09-29T02:13:21;4.13;;;2.43;;
68583;SDS011;55557;49.220;11.150;2022-09-29T02:15:48;5.97;;;2.50;;
68583;SDS011;55557;49.220;11.150;2022-09-29T02:18:17;3.83;;;2.50;;
68583;SDS011;55557;49.220;11.150;2022-09-29T02:20:45;3.87;;;2.17;;
68583;SDS011;55557;49.220;11.150;2022-09-29T02:23:11;3.70;;;2.83;;
68583;SDS011;55557;49.220;11.150;2022-09-29T02:25:38;8.47;;;2.27;;
68583;SDS011;55557;49.220;11.150;2022-09-29T02:28:05;2.90;;;2.57;;
68583;SDS011;55557;49.220;11.150;2022-09-29T02:30:31;7.87;;;3.07;;
68583;SDS011;55557;49.220;11.150;2022-09-29T02:32:58;3.70;;;2.10;;
68583;SDS011;55557;49.220;11.150;2022-09-29T02:35:24;3.63;;;2.40;;
68583;SDS011;55557;49.220;11.150;2022-09-29T02:38:03;3.60;;;2.77;;
68583;SDS011;55557;49.220;11.150;2022-09-29T02:48:12;3.80;;;2.63;;
68583;SDS011;55557;49.220;11.150;2022-09-29T02:50:43;2.83;;;2.33;;
68583;SDS011;55557;49.220;11.150;2022-09-29T02:58:50;3.43;;;2.33;;
68583;SDS011;55557;49.220;11.150;2022-09-29T03:01:18;2.53;;;1.90;;
68583;SDS011;55557;49.220;11.150;2022-09-29T03:03:44;5.33;;;2.60;;
68583;SDS011;55557;49.220;11.150;2022-09-29T03:06:10;2.07;;;1.87;;
68583;SDS011;55557;49.220;11.150;2022-09-29T03:08:38;4.00;;;3.10;;
68583;SDS011;55557;49.220;11.150;2022-09-29T03:11:04;6.70;;;2.37;;
68583;SDS011;55557;49.220;11.150;2022-09-29T03:13:30;7.23;;;2.80;;
68583;SDS011;55557;49.220;11.150;2022-09-29T03:15:56;3.20;;;2.10;;
68583;SDS011;55557;49.220;11.150;2022-09-29T03:18:22;3.13;;;2.73;;
68583;SDS011;55557;49.220;11.150;2022-09-29T03:20:48;6.70;;;2.37;;
68583;SDS011;55557;49.220;11.150;2022-09-29T03:23:14;3.37;;;2.50;;
68583;SDS011;55557;49.220;11.150;2022-09-29T03:25:41;5.93;;;2.87;;
68583;SDS011;55557;49.220;11.150;2022-09-29T03:28:07;2.20;;;2.00;;
68583;SDS011;55557;49.220;11.150;2022-09-29T03:30:33;2.77;;;2.43;;
68583;SDS011;55557;49.220;11.150;2022-09-29T03:32:59;3.23;;;2.20;;
68583;SDS011;55557;49.220;11.150;2022-09-29T03:35:25;4.03;;;2.50;;
68583;SDS011;55557;49.220;11.150;2022-09-29T03:37:51;5.47;;;2.70;;
68583;SDS011;55557;49.220;11.150;2022-09-29T03:40:21;5.57;;;2.47;;
68583;SDS011;55557;49.220;11.150;2022-09-29T03:42:47;6.50;;;3.10;;
68583;SDS011;55557;49.220;11.150;2022-09-29T03:45:13;4.50;;;3.20;;
68583;SDS011;55557;49.220;11.150;2022-09-29T03:47:39;4.73;;;3.40;;
68583;SDS011;55557;49.220;11.150;2022-09-29T03:50:05;6.47;;;3.67;;
68583;SDS011;55557;49.220;11.150;2022-09-29T03:52:31;5.37;;;3.53;;
68583;SDS011;55557;49.220;11.150;2022-09-29T03:54:57;6.83;;;3.30;;
68583;SDS011;55557;49.220;11.150;2022-09-29T03:57:23;3.70;;;3.30;;
68583;SDS011;55557;49.220;11.150;2022-09-29T03:59:49;15.33;;;3.50;;
68583;SDS011;55557;49.220;11.150;2022-09-29T04:02:17;5.67;;;3.50;;
68583;SDS011;55557;49.220;11.150;2022-09-29T04:04:43;3.20;;;2.83;;
68583;SDS011;55557;49.220;11.150;2022-09-29T04:07:10;3.03;;;2.80;;
68583;SDS011;55557;49.220;11.150;2022-09-29T04:09:36;4.13;;;2.73;;
68583;SDS011;55557;49.220;11.150;2022-09-29T04:12:02;5.87;;;3.30;;
68583;SDS011;55557;49.220;11.150;2022-09-29T04:14:28;10.10;;;5.73;;
68583;SDS011;55557;49.220;11.150;2022-09-29T04:16:54;8.27;;;6.97;;
68583;SDS011;55557;49.220;11.150;2022-09-29T04:19:20;7.80;;;6.13;;
68583;SDS011;55557;49.220;11.150;2022-09-29T04:21:46;9.17;;;5.53;;
68583;SDS011;55557;49.220;11.150;2022-09-29T04:24:12;7.17;;;4.10;;
68583;SDS011;55557;49.220;11.150;2022-09-29T04:26:38;4.70;;;4.10;;
68583;SDS011;55557;49.220;11.150;2022-09-29T04:29:04;7.53;;;3.93;;
68583;SDS011;55557;49.220;11.150;2022-09-29T04:31:30;5.97;;;4.40;;
68583;SDS011;55557;49.220;11.150;2022-09-29T04:33:56;8.07;;;4.20;;
68583;SDS011;55557;49.220;11.150;2022-09-29T04:36:23;7.63;;;4.47;;
68583;SDS011;55557;49.220;11.150;2022-09-29T04:38:49;8.90;;;5.20;;
68583;SDS011;55557;49.220;11.150;2022-09-29T04:41:15;6.90;;;4.97;;
68583;SDS011;55557;49.220;11.150;2022-09-29T04:43:41;5.27;;;3.80;;
68583;SDS011;55557;49.220;11.150;2022-09-29T04:46:07;4.97;;;3.27;;
68583;SDS011;55557;49.220;11.150;2022-09-29T04:48:34;5.67;;;3.67;;
68583;SDS011;55557;49.220;11.150;2022-09-29T04:51:01;7.10;;;4.00;;
68583;SDS011;55557;49.220;11.150;2022-09-29T04:53:27;7.80;;;4.03;;
68583;SDS011;55557;49.220;11.150;2022-09-29T04:55:53;3.27;;;2.87;;
68583;SDS011;55557;49.220;11.150;2022-09-29T04:58:19;4.77;;;3.60;;
68583;SDS011;55557;49.220;11.150;2022-09-29T05:00:45;6.00;;;3.37;;
68583;SDS011;55557;49.220;11.150;2022-09-29T05:03:11;6.57;;;3.30;;
68583;SDS011;55557;49.220;11.150;2022-09-29T05:05:37;4.47;;;3.23;;
68583;SDS011;55557;49.220;11.150;2022-09-29T05:08:03;5.47;;;3.50;;
68583;SDS011;55557;49.220;11.150;2022-09-29T05:10:29;4.47;;;3.50;;
68583;SDS011;55557;49.220;11.150;2022-09-29T05:12:55;7.40;;;4.47;;
68583;SDS011;55557;49.220;11.150;2022-09-29T05:15:22;8.43;;;4.70;;
68583;SDS011;55557;49.220;11.150;2022-09-29T05:17:48;10.93;;;5.67;;
68583;SDS011;55557;49.220;11.150;2022-09-29T05:20:14;11.60;;;5.20;;
68583;SDS011;55557;49.220;11.150;2022-09-29T05:22:40;7.90;;;5.87;;
68583;SDS011;55557;49.220;11.150;2022-09-29T05:25:06;9.50;;;5.00;;
68583;SDS011;55557;49.220;11.150;2022-09-29T05:27:33;8.17;;;5.40;;
68583;SDS011;55557;49.220;11.150;2022-09-29T05:29:59;9.30;;;6.03;;
68583;SDS011;55557;49.220;11.150;2022-09-29T05:32:25;9.90;;;6.13;;
68583;SDS011;55557;49.220;11.150;2022-09-29T05:34:51;10.33;;;5.93;;
68583;SDS011;55557;49.220;11.150;2022-09-29T05:37:17;11.10;;;5.67;;
68583;SDS011;55557;49.220;11.150;2022-09-29T05:39:43;6.43;;;5.40;;
68583;SDS011;55557;49.220;11.150;2022-09-29T05:42:10;6.27;;;5.17;;
68583;SDS011;55557;49.220;11.150;2022-09-29T05:44:36;7.73;;;5.33;;
68583;SDS011;55557;49.220;11.150;2022-09-29T05:47:02;8.27;;;5.57;;
68583;SDS011;55557;49.220;11.150;2022-09-29T05:49:28;9.10;;;6.00;;
68583;SDS011;55557;49.220;11.150;2022-09-29T05:51:58;8.17;;;5.43;;
68583;SDS011;55557;49.220;11.150;2022-09-29T05:54:24;16.53;;;5.83;;
68583;SDS011;55557;49.220;11.150;2022-09-29T05:56:51;8.20;;;5.90;;
68583;SDS011;55557;49.220;11.150;2022-09-29T05:59:17;9.17;;;5.53;;
68583;SDS011;55557;49.220;11.150;2022-09-29T06:01:43;11.17;;;6.00;;
68583;SDS011;55557;49.220;11.150;2022-09-29T06:04:09;10.33;;;6.20;;
68583;SDS011;55557;49.220;11.150;2022-09-29T06:06:35;7.37;;;5.50;;
68583;SDS011;55557;49.220;11.150;2022-09-29T06:09:04;13.03;;;5.00;;
68583;SDS011;55557;49.220;11.150;2022-09-29T06:11:30;10.87;;;6.23;;
68583;SDS011;55557;49.220;11.150;2022-09-29T06:13:56;12.43;;;5.80;;
68583;SDS011;55557;49.220;11.150;2022-09-29T06:16:23;13.80;;;6.97;;
68583;SDS011;55557;49.220;11.150;2022-09-29T06:18:49;8.83;;;6.20;;
68583;SDS011;55557;49.220;11.150;2022-09-29T06:21:16;9.23;;;6.47;;
68583;SDS011;55557;49.220;11.150;2022-09-29T06:23:43;9.80;;;6.80;;
68583;SDS011;55557;49.220;11.150;2022-09-29T06:26:11;8.50;;;5.70;;
68583;SDS011;55557;49.220;11.150;2022-09-29T06:28:37;14.27;;;6.80;;
68583;SDS011;55557;49.220;11.150;2022-09-29T06:31:04;8.10;;;5.97;;
68583;SDS011;55557;49.220;11.150;2022-09-29T06:33:31;8.37;;;5.80;;
68583;SDS011;55557;49.220;11.150;2022-09-29T06:35:58;9.90;;;6.83;;
68583;SDS011;55557;49.220;11.150;2022-09-29T06:38:43;8.80;;;6.27;;
68583;SDS011;55557;49.220;11.150;2022-09-29T06:41:09;10.13;;;7.33;;
68583;SDS011;55557;49.220;11.150;2022-09-29T06:43:35;9.33;;;6.00;;
68583;SDS011;55557;49.220;11.150;2022-09-29T06:46:02;8.60;;;6.13;;
68583;SDS011;55557;49.220;11.150;2022-09-29T06:48:28;9.00;;;6.70;;
68583;SDS011;55557;49.220;11.150;2022-09-29T06:50:55;8.87;;;6.23;;
68583;SDS011;55557;49.220;11.150;2022-09-29T06:53:21;12.83;;;6.77;;
68583;SDS011;55557;49.220;11.150;2022-09-29T06:55:51;9.73;;;6.23;;
68583;SDS011;55557;49.220;11.150;2022-09-29T06:58:17;8.77;;;6.47;;
68583;SDS011;55557;49.220;11.150;2022-09-29T07:00:43;8.17;;;6.00;;
68583;SDS011;55557;49.220;11.150;2022-09-29T07:03:09;9.47;;;6.07;;
68583;SDS011;55557;49.220;11.150;2022-09-29T07:05:35;8.47;;;6.00;;
68583;SDS011;55557;49.220;11.150;2022-09-29T07:08:01;9.17;;;5.93;;
68583;SDS011;55557;49.220;11.150;2022-09-29T07:10:28;7.60;;;5.67;;
68583;SDS011;55557;49.220;11.150;2022-09-29T07:12:54;13.00;;;5.83;;
68583;SDS011;55557;49.220;11.150;2022-09-29T07:15:20;8.60;;;5.17;;
68583;SDS011;55557;49.220;11.150;2022-09-29T07:17:49;9.23;;;6.20;;
68583;SDS011;55557;49.220;11.150;2022-09-29T07:20:16;8.83;;;5.80;;
68583;SDS011;55557;49.220;11.150;2022-09-29T07:22:45;7.80;;;5.83;;
68583;SDS011;55557;49.220;11.150;2022-09-29T07:25:11;9.23;;;6.40;;
68583;SDS011;55557;49.220;11.150;2022-09-29T07:27:37;7.77;;;5.90;;
68583;SDS011;55557;49.220;11.150;2022-09-29T07:30:03;7.20;;;5.60;;
68583;SDS011;55557;49.220;11.150;2022-09-29T07:32:30;9.37;;;5.67;;
68583;SDS011;55557;49.220;11.150;2022-09-29T07:34:58;8.80;;;5.53;;
68583;SDS011;55557;49.220;11.150;2022-09-29T07:37:27;7.83;;;5.67;;
68583;SDS011;55557;49.220;11.150;2022-09-29T07:39:54;10.00;;;6.43;;
68583;SDS011;55557;49.220;11.150;2022-09-29T07:42:20;10.77;;;5.73;;
68583;SDS011;55557;49.220;11.150;2022-09-29T07:44:46;9.53;;;5.60;;
68583;SDS011;55557;49.220;11.150;2022-09-29T07:47:13;8.03;;;6.17;;
68583;SDS011;55557;49.220;11.150;2022-09-29T07:49:41;7.17;;;5.80;;
68583;SDS011;55557;49.220;11.150;2022-09-29T07:52:11;10.50;;;6.93;;
68583;SDS011;55557;49.220;11.150;2022-09-29T07:54:40;8.33;;;5.53;;
68583;SDS011;55557;49.220;11.150;2022-09-29T07:57:06;6.47;;;4.80;;
68583;SDS011;55557;49.220;11.150;2022-09-29T07:59:32;11.53;;;5.87;;
68583;SDS011;55557;49.220;11.150;2022-09-29T08:01:58;9.63;;;5.83;;
68583;SDS011;55557;49.220;11.150;2022-09-29T08:04:26;8.70;;;5.57;;
68583;SDS011;55557;49.220;11.150;2022-09-29T08:06:52;14.83;;;5.83;;
68583;SDS011;55557;49.220;11.150;2022-09-29T08:09:18;7.00;;;5.43;;
68583;SDS011;55557;49.220;11.150;2022-09-29T08:11:44;8.27;;;6.27;;
68583;SDS011;55557;49.220;11.150;2022-09-29T08:14:10;7.97;;;5.77;;
68583;SDS011;55557;49.220;11.150;2022-09-29T08:16:36;9.37;;;5.93;;
68583;SDS011;55557;49.220;11.150;2022-09-29T08:19:03;13.13;;;6.03;;
68583;SDS011;55557;49.220;11.150;2022-09-29T08:21:30;8.30;;;6.23;;
68583;SDS011;55557;49.220;11.150;2022-09-29T08:24:00;11.47;;;5.83;;
68583;SDS011;55557;49.220;11.150;2022-09-29T08:26:28;8.20;;;5.80;;
68583;SDS011;55557;49.220;11.150;2022-09-29T08:28:56;9.57;;;6.30;;
68583;SDS011;55557;49.220;11.150;2022-09-29T08:31:22;8.00;;;6.20;;
68583;SDS011;55557;49.220;11.150;2022-09-29T08:33:49;9.37;;;6.00;;
68583;SDS011;55557;49.220;11.150;2022-09-29T08:36:16;7.37;;;5.30;;
68583;SDS011;55557;49.220;11.150;2022-09-29T08:38:42;9.23;;;6.10;;
68583;SDS011;55557;49.220;11.150;2022-09-29T08:43:40;9.97;;;6.17;;
68583;SDS011;55557;49.220;11.150;2022-09-29T08:46:09;8.10;;;5.73;;
68583;SDS011;55557;49.220;11.150;2022-09-29T08:48:38;9.43;;;6.23;;
68583;SDS011;55557;49.220;11.150;2022-09-29T08:51:07;10.67;;;5.77;;
68583;SDS011;55557;49.220;11.150;2022-09-29T08:53:40;8.67;;;5.07;;
68583;SDS011;55557;49.220;11.150;2022-09-29T08:56:12;7.50;;;4.63;;
68583;SDS011;55557;49.220;11.150;2022-09-29T08:58:39;6.80;;;5.00;;
68583;SDS011;55557;49.220;11.150;2022-09-29T09:06:21;9.67;;;5.03;;
68583;SDS011;55557;49.220;11.150;2022-09-29T09:11:28;9.30;;;5.47;;
68583;SDS011;55557;49.220;11.150;2022-09-29T09:19:18;9.63;;;4.93;;
68583;SDS011;55557;49.220;11.150;2022-09-29T09:21:48;6.00;;;4.57;;
68583;SDS011;55557;49.220;11.150;2022-09-29T09:24:24;7.93;;;5.40;;
68583;SDS011;55557;49.220;11.150;2022-09-29T09:26:52;9.30;;;5.70;;
68583;SDS011;55557;49.220;11.150;2022-09-29T09:29:21;9.00;;;5.53;;
68583;SDS011;55557;49.220;11.150;2022-09-29T09:34:28;7.37;;;5.23;;
68583;SDS011;55557;49.220;11.150;2022-09-29T09:39:54;8.13;;;5.40;;
68583;SDS011;55557;49.220;11.150;2022-09-29T09:42:23;7.50;;;4.37;;
68583;SDS011;55557;49.220;11.150;2022-09-29T09:44:52;8.83;;;4.77;;
68583;SDS011;55557;49.220;11.150;2022-09-29T09:47:39;6.57;;;4.87;;
68583;SDS011;55557;49.220;11.150;2022-09-29T09:50:17;9.87;;;5.77;;
68583;SDS011;55557;49.220;11.150;2022-09-29T09:55:13;8.93;;;5.23;;
68583;SDS011;55557;49.220;11.150;2022-09-29T10:00:16;8.00;;;5.30;;
68583;SDS011;55557;49.220;11.150;2022-09-29T10:02:45;7.87;;;5.47;;
68583;SDS011;55557;49.220;11.150;2022-09-29T10:05:15;6.63;;;5.10;;
68583;SDS011;55557;49.220;11.150;2022-09-29T10:07:43;8.63;;;5.57;;
68583;SDS011;55557;49.220;11.150;2022-09-29T10:10:19;7.73;;;5.30;;
68583;SDS011;55557;49.220;11.150;2022-09-29T10:12:46;7.47;;;5.00;;
68583;SDS011;55557;49.220;11.150;2022-09-29T10:15:21;8.67;;;5.73;;
68583;SDS011;55557;49.220;11.150;2022-09-29T10:17:58;8.23;;;5.70;;
68583;SDS011;55557;49.220;11.150;2022-09-29T10:20:36;6.77;;;5.20;;
68583;SDS011;55557;49.220;11.150;2022-09-29T10:26:21;11.83;;;4.47;;
68583;SDS011;55557;49.220;11.150;2022-09-29T10:28:42;6.43;;;5.03;;
68583;SDS011;55557;49.220;11.150;2022-09-29T10:31:23;10.37;;;4.53;;
68583;SDS011;55557;49.220;11.150;2022-09-29T10:33:56;9.33;;;5.17;;
68583;SDS011;55557;49.220;11.150;2022-09-29T10:36:26;8.47;;;5.17;;
68583;SDS011;55557;49.220;11.150;2022-09-29T10:38:53;7.47;;;5.80;;
68583;SDS011;55557;49.220;11.150;2022-09-29T10:41:20;9.37;;;5.60;;
68583;SDS011;55557;49.220;11.150;2022-09-29T10:43:46;6.50;;;5.27;;
68583;SDS011;55557;49.220;11.150;2022-09-29T10:49:08;7.87;;;5.17;;
68583;SDS011;55557;49.220;11.150;2022-09-29T10:51:35;11.00;;;5.20;;
68583;SDS011;55557;49.220;11.150;2022-09-29T10:54:08;12.63;;;6.07;;
68583;SDS011;55557;49.220;11.150;2022-09-29T10:56:35;9.17;;;5.30;;
68583;SDS011;55557;49.220;11.150;2022-09-29T10:59:01;7.13;;;5.63;;
68583;SDS011;55557;49.220;11.150;2022-09-29T11:01:28;10.50;;;5.97;;
68583;SDS011;55557;49.220;11.150;2022-09-29T11:03:56;9.73;;;5.87;;
68583;SDS011;55557;49.220;11.150;2022-09-29T11:06:30;9.03;;;6.07;;
68583;SDS011;55557;49.220;11.150;2022-09-29T11:09:04;9.47;;;5.93;;
68583;SDS011;55557;49.220;11.150;2022-09-29T11:11:32;12.60;;;6.70;;
68583;SDS011;55557;49.220;11.150;2022-09-29T11:13:59;11.83;;;6.20;;
68583;SDS011;55557;49.220;11.150;2022-09-29T11:16:26;7.30;;;5.30;;
68583;SDS011;55557;49.220;11.150;2022-09-29T11:18:54;10.23;;;6.63;;
68583;SDS011;55557;49.220;11.150;2022-09-29T11:34:28;12.97;;;6.60;;
68583;SDS011;55557;49.220;11.150;2022-09-29T11:36:58;11.10;;;6.77;;
68583;SDS011;55557;49.220;11.150;2022-09-29T11:57:59;9.43;;;5.83;;
68583;SDS011;55557;49.220;11.150;2022-09-29T12:00:35;8.60;;;5.40;;
68583;SDS011;55557;49.220;11.150;2022-09-29T12:03:22;10.03;;;6.80;;
68583;SDS011;55557;49.220;11.150;2022-09-29T12:11:06;11.07;;;6.53;;
68583;SDS011;55557;49.220;11.150;2022-09-29T12:13:37;11.23;;;6.70;;
68583;SDS011;55557;49.220;11.150;2022-09-29T12:19:07;10.53;;;7.03;;
68583;SDS011;55557;49.220;11.150;2022-09-29T12:21:30;11.93;;;7.07;;
68583;SDS011;55557;49.220;11.150;2022-09-29T12:23:57;10.60;;;7.83;;
68583;SDS011;55557;49.220;11.150;2022-09-29T12:26:24;12.23;;;7.13;;
68583;SDS011;55557;49.220;11.150;2022-09-29T12:28:53;10.20;;;6.83;;
68583;SDS011;55557;49.220;11.150;2022-09-29T12:31:22;11.93;;;6.63;;
68583;SDS011;55557;49.220;11.150;2022-09-29T12:34:32;9.13;;;6.13;;
68583;SDS011;55557;49.220;11.150;2022-09-29T12:39:11;13.13;;;6.27;;
68583;SDS011;55557;49.220;11.150;2022-09-29T12:41:40;7.77;;;5.53;;
68583;SDS011;55557;49.220;11.150;2022-09-29T12:44:14;8.63;;;5.67;;
68583;SDS011;55557;49.220;11.150;2022-09-29T12:46:54;7.37;;;5.37;;
68583;SDS011;55557;49.220;11.150;2022-09-29T12:49:25;6.97;;;5.67;;
68583;SDS011;55557;49.220;11.150;2022-09-29T12:51:54;7.03;;;5.40;;
68583;SDS011;55557;49.220;11.150;2022-09-29T12:56:50;13.23;;;7.40;;
68583;SDS011;55557;49.220;11.150;2022-09-29T13:01:56;8.50;;;5.60;;
68583;SDS011;55557;49.220;11.150;2022-09-29T13:06:59;8.43;;;5.73;;
68583;SDS011;55557;49.220;11.150;2022-09-29T13:17:57;8.23;;;4.90;;
68583;SDS011;55557;49.220;11.150;2022-09-29T13:25:44;7.13;;;5.73;;
68583;SDS011;55557;49.220;11.150;2022-09-29T13:28:24;6.80;;;4.93;;
68583;SDS011;55557;49.220;11.150;2022-09-29T13:30:51;5.70;;;4.63;;
68583;SDS011;55557;49.220;11.150;2022-09-29T13:33:20;10.00;;;6.20;;
68583;SDS011;55557;49.220;11.150;2022-09-29T13:35:47;5.70;;;4.83;;
68583;SDS011;55557;49.220;11.150;2022-09-29T13:38:18;10.40;;;6.30;;
68583;SDS011;55557;49.220;11.150;2022-09-29T13:43:37;9.37;;;5.13;;
68583;SDS011;55557;49.220;11.150;2022-09-29T13:48:51;8.03;;;4.67;;
68583;SDS011;55557;49.220;11.150;2022-09-29T13:51:22;9.07;;;4.53;;
68583;SDS011;55557;49.220;11.150;2022-09-29T13:54:12;9.23;;;4.50;;
68583;SDS011;55557;49.220;11.150;2022-09-29T13:56:35;9.27;;;3.90;;
68583;SDS011;55557;49.220;11.150;2022-09-29T13:59:01;6.30;;;4.43;;
68583;SDS011;55557;49.220;11.150;2022-09-29T14:03:56;6.83;;;4.40;;
68583;SDS011;55557;49.220;11.150;2022-09-29T14:06:23;8.17;;;4.57;;
68583;SDS011;55557;49.220;11.150;2022-09-29T14:08:51;7.97;;;4.37;;
68583;SDS011;55557;49.220;11.150;2022-09-29T14:13:47;5.47;;;3.90;;
68583;SDS011;55557;49.220;11.150;2022-09-29T14:18:53;5.13;;;4.10;;
68583;SDS011;55557;49.220;11.150;2022-09-29T14:24:39;11.27;;;4.30;;
68583;SDS011;55557;49.220;11.150;2022-09-29T14:26:51;10.77;;;7.80;;
68583;SDS011;55557;49.220;11.150;2022-09-29T14:31:47;9.50;;;5.33;;
68583;SDS011;55557;49.220;11.150;2022-09-29T14:34:15;15.93;;;9.40;;
68583;SDS011;55557;49.220;11.150;2022-09-29T14:36:42;12.87;;;8.70;;
68583;SDS011;55557;49.220;11.150;2022-09-29T14:39:11;8.60;;;6.07;;
68583;SDS011;55557;49.220;11.150;2022-09-29T14:41:39;9.50;;;6.13;;
68583;SDS011;55557;49.220;11.150;2022-09-29T14:44:14;10.23;;;5.93;;
68583;SDS011;55557;49.220;11.150;2022-09-29T14:58:22;10.93;;;8.00;;
68583;SDS011;55557;49.220;11.150;2022-09-29T15:01:14;9.43;;;6.40;;
68583;SDS011;55557;49.220;11.150;2022-09-29T15:03:17;9.10;;;6.20;;
68583;SDS011;55557;49.220;11.150;2022-09-29T15:05:48;11.47;;;6.07;;
68583;SDS011;55557;49.220;11.150;2022-09-29T15:08:28;10.13;;;5.43;;
68583;SDS011;55557;49.220;11.150;2022-09-29T15:10:55;8.17;;;5.90;;
68583;SDS011;55557;49.220;11.150;2022-09-29T15:15:48;7.47;;;4.93;;
68583;SDS011;55557;49.220;11.150;2022-09-29T15:20:52;13.33;;;7.93;;
68583;SDS011;55557;49.220;11.150;2022-09-29T15:25:53;9.43;;;5.43;;
68583;SDS011;55557;49.220;11.150;2022-09-29T15:30:48;11.97;;;8.07;;
68583;SDS011;55557;49.220;11.150;2022-09-29T15:35:42;7.43;;;5.47;;
68583;SDS011;55557;49.220;11.150;2022-09-29T15:40:34;7.50;;;5.30;;
68583;SDS011;55557;49.220;11.150;2022-09-29T15:43:17;7.37;;;5.10;;
68583;SDS011;55557;49.220;11.150;2022-09-29T15:45:51;5.83;;;4.40;;
68583;SDS011;55557;49.220;11.150;2022-09-29T15:48:18;10.57;;;3.90;;
68583;SDS011;55557;49.220;11.150;2022-09-29T15:50:44;5.37;;;4.13;;
68583;SDS011;55557;49.220;11.150;2022-09-29T15:53:10;4.80;;;3.57;;
68583;SDS011;55557;49.220;11.150;2022-09-29T15:55:36;4.60;;;3.97;;
68583;SDS011;55557;49.220;11.150;2022-09-29T15:58:26;5.57;;;3.67;;
68583;SDS011;55557;49.220;11.150;2022-09-29T16:00:49;4.87;;;4.07;;
68583;SDS011;55557;49.220;11.150;2022-09-29T16:03:25;6.97;;;4.80;;
68583;SDS011;55557;49.220;11.150;2022-09-29T16:08:23;7.40;;;3.70;;
68583;SDS011;55557;49.220;11.150;2022-09-29T16:10:54;6.00;;;3.47;;
68583;SDS011;55557;49.220;11.150;2022-09-29T16:13:25;7.03;;;3.53;;
68583;SDS011;55557;49.220;11.150;2022-09-29T16:15:54;6.33;;;4.07;;
68583;SDS011;55557;49.220;11.150;2022-09-29T16:18:21;6.50;;;3.60;;
68583;SDS011;55557;49.220;11.150;2022-09-29T16:20:48;7.07;;;4.37;;
68583;SDS011;55557;49.220;11.150;2022-09-29T16:25:41;6.20;;;4.57;;
68583;SDS011;55557;49.220;11.150;2022-09-29T16:28:22;16.83;;;4.53;;
68583;SDS011;55557;49.220;11.150;2022-09-29T16:31:05;6.17;;;4.30;;
68583;SDS011;55557;49.220;11.150;2022-09-29T16:33:34;5.43;;;3.50;;
68583;SDS011;55557;49.220;11.150;2022-09-29T16:36:01;5.83;;;3.97;;
68583;SDS011;55557;49.220;11.150;2022-09-29T16:38:29;6.23;;;4.33;;
68583;SDS011;55557;49.220;11.150;2022-09-29T16:40:59;6.13;;;4.47;;
68583;SDS011;55557;49.220;11.150;2022-09-29T16:43:32;4.83;;;3.70;;
68583;SDS011;55557;49.220;11.150;2022-09-29T16:46:00;8.13;;;3.63;;
68583;SDS011;55557;49.220;11.150;2022-09-29T16:48:29;7.47;;;3.50;;
68583;SDS011;55557;49.220;11.150;2022-09-29T16:50:57;4.73;;;3.27;;
68583;SDS011;55557;49.220;11.150;2022-09-29T16:53:33;4.47;;;3.53;;
68583;SDS011;55557;49.220;11.150;2022-09-29T16:58:25;4.20;;;3.00;;
68583;SDS011;55557;49.220;11.150;2022-09-29T17:00:52;4.10;;;3.03;;
68583;SDS011;55557;49.220;11.150;2022-09-29T17:03:18;3.73;;;3.23;;
68583;SDS011;55557;49.220;11.150;2022-09-29T17:05:44;8.33;;;3.30;;
68583;SDS011;55557;49.220;11.150;2022-09-29T17:08:17;5.67;;;2.83;;
68583;SDS011;55557;49.220;11.150;2022-09-29T17:10:46;5.00;;;2.87;;
68583;SDS011;55557;49.220;11.150;2022-09-29T17:13:12;7.00;;;3.30;;
68583;SDS011;55557;49.220;11.150;2022-09-29T17:15:39;6.63;;;4.40;;
68583;SDS011;55557;49.220;11.150;2022-09-29T17:18:08;6.93;;;4.37;;
68583;SDS011;55557;49.220;11.150;2022-09-29T17:20:35;4.30;;;3.23;;
68583;SDS011;55557;49.220;11.150;2022-09-29T17:23:01;4.50;;;3.47;;
68583;SDS011;55557;49.220;11.150;2022-09-29T17:25:28;4.43;;;3.43;;
68583;SDS011;55557;49.220;11.150;2022-09-29T17:27:54;5.40;;;3.00;;
68583;SDS011;55557;49.220;11.150;2022-09-29T17:30:36;4.27;;;3.10;;
68583;SDS011;55557;49.220;11.150;2022-09-29T17:33:03;3.73;;;3.00;;
68583;SDS011;55557;49.220;11.150;2022-09-29T17:35:39;2.30;;;2.10;;
68583;SDS011;55557;49.220;11.150;2022-09-29T17:38:05;4.13;;;3.20;;
68583;SDS011;55557;49.220;11.150;2022-09-29T17:40:55;5.77;;;4.20;;
68583;SDS011;55557;49.220;11.150;2022-09-29T17:43:19;6.47;;;4.60;;
68583;SDS011;55557;49.220;11.150;2022-09-29T17:45:47;6.23;;;4.80;;